Huvudsida
METAR-TAF:

METAR-TAF

Flygplatser :

Dhahran, Saudiarabien

latitud: 26-16N, longitud: 050-09E, höjd: 26 m

Aktuellt väderrapport

Denna rapport gjordes för 27 minuter sedan, klockan 19:00 UTC
Vind 2 kt varierande vindriktning
Temperatur 25°C
Fuktighet 50%
Tryck 1014 hPa
Sikt 10 km eller mer
Inga moln under 1 500 m eller inga cumulonimbus

METAR: OEDR 111900Z VRB02KT CAVOK 25/14 Q1014 NOSIG

Tid: 22:27 (19:27 UTC)

Väderprognos

Denna rapport gjordes för 4 timmar och 27 minuter sedan, klockan 15:00 UTC
Prognos gäller från 11 kl. 18 UTC till 12 kl. 24 UTC
Vind 3 kt varierande vindriktning
Sikt: 8000 m
Få moln på en höjd av 4000 ft
Spridda moln på en höjd av 10000 ft
Temporärt
från 12 kl. 00 UTC till 12 kl. 04 UTC
Sikt: 5000 m
fuktdis
Blir
från 12 kl. 08 UTC till 12 kl. 10 UTC
Vind 12 kt från nordost
Sikt 10 km eller mer
Inga moln under 1 500 m eller inga cumulonimbus

TAF: OEDR 111500Z 1118/1224 VRB03KT 8000 FEW040 SCT100 TEMPO 1200/1204 5000 BR BECMG 1208/1210 05012KT CAVOK

Aktuella väderrapporter och prognoser från 4000 flygplatser (METAR- och TAF-rapporter).

De tillgängliga stationerna syns som gula och röda prickar på kartan.

För musen över prickarna för att se namnen på stationerna.

Klicka sedan för att få väderrapporter och prognoser.

För att ändra kartan: Klicka på de gröna knapparna med ett svart kors på för att zooma in; den gröna knappen med ett streck på för att zooma ut; eller på de gröna pilarna för angränsande kartor.


METAR-TAF: